Time;durP1;ratioP1;P1;durP2;ratioP2;P2;SDS_P1;SDS_P2;PMS_P1;PMS_P2;Temp;Humidity;BMP_temperature;BMP_pressure;BME280_temperature;BME280_humidity;BME280_pressure;Samples;Min_cycle;Max_cycle;Signal;HPM_P1;HPM_P2
2022/08/31 00:05:23;;;;;;;;;;;;;;;20.87;52.33;96606.84;5042438;28;19968;-80
2022/08/31 00:07:49;;;;;;;;;;;;;;;20.80;53.29;96603.69;5042481;28;20322;-79
2022/08/31 00:10:17;;;;;;;;;;;;;;;20.73;53.32;96610.44;5023279;28;19950;-79
2022/08/31 00:12:44;;;;;;;;;;;;;;;20.65;54.57;96604.59;5041345;28;19957;-79
2022/08/31 00:15:12;;;;;;;;;;;;;;;20.59;56.03;96615.59;5043029;28;19957;-80
2022/08/31 00:17:38;;;;;;;;;;;;;;;20.54;55.63;96610.28;5044617;28;19978;-79
2022/08/31 00:20:05;;;;;;;;;;;;;;;20.47;55.75;96605.22;5048065;28;19959;-79
2022/08/31 00:22:31;;;;;;;;;;;;;;;20.42;56.10;96615.94;5037173;28;19954;-79
2022/08/31 00:24:57;;;;;;;;;;;;;;;20.32;56.64;96624.78;5047698;28;19962;-79
2022/08/31 00:27:23;;;;;;;;;;;;;;;20.15;57.63;96619.81;5048534;28;20361;-79
2022/08/31 00:29:49;;;;;;;;;;;;;;;19.82;59.85;96610.66;5040936;28;19959;-79
2022/08/31 00:32:15;;;;;;;;;;;;;;;19.45;62.28;96612.63;5040226;28;19962;-78
2022/08/31 00:34:40;;;;;;;;;;;;;;;19.06;65.05;96618.53;5048316;28;20050;-79
2022/08/31 00:37:06;;;;;;;;;;;;;;;18.77;67.15;96612.97;5046228;28;20457;-79
2022/08/31 00:39:32;;;;;;;;;;;;;;;18.56;67.60;96620.16;5039541;28;19995;-79
2022/08/31 00:41:58;;;;;;;;;;;;;;;18.35;68.48;96616.66;5042997;28;19948;-79
2022/08/31 00:44:24;;;;;;;;;;;;;;;18.10;73.29;96613.94;5052175;28;19967;-79
2022/08/31 00:46:50;;;;;;;;;;;;;;;17.88;74.70;96632.72;5048863;28;19967;-79
2022/08/31 00:49:19;;;;;;;;;;;;;;;17.68;74.18;96636.84;5041991;28;19952;-77
2022/08/31 00:51:57;;;;;;;;;;;;;;;17.49;70.06;96620.59;5040079;28;19953;-76
2022/08/31 00:54:29;;;;;;;;;;;;;;;17.31;79.21;96645.66;5045780;28;20292;-74
2022/08/31 00:56:55;;;;;;;;;;;;;;;17.20;76.95;96622.81;5049611;28;20321;-74
2022/08/31 00:59:21;;;;;;;;;;;;;;;17.10;86.30;96630.69;5044864;28;19947;-76
2022/08/31 01:01:47;;;;;;;;;;;;;;;16.98;83.26;96620.25;5044578;28;19964;-77
2022/08/31 01:04:13;;;;;;;;;;;;;;;16.83;87.08;96616.44;5039222;28;19975;-78
2022/08/31 01:06:40;;;;;;;;;;;;;;;16.75;80.14;96610.78;5041252;28;20453;-78
2022/08/31 01:09:06;;;;;;;;;;;;;;;16.67;77.99;96612.03;5040641;28;19949;-78
2022/08/31 01:11:33;;;;;;;;;;;;;;;16.68;81.74;96611.00;5047083;28;19954;-78
2022/08/31 01:13:59;;;;;;;;;;;;;;;16.69;84.94;96611.81;5044568;28;19952;-79
2022/08/31 01:16:28;;;;;;;;;;;;;;;16.65;84.06;96608.84;5039282;28;19962;-78
2022/08/31 01:18:55;;;;;;;;;;;;;;;16.62;88.09;96620.75;5042400;28;19946;-78
2022/08/31 01:21:24;;;;;;;;;;;;;;;16.61;82.49;96608.56;5038595;28;19948;-78
2022/08/31 01:23:51;;;;;;;;;;;;;;;16.60;84.16;96612.25;5046826;28;20414;-78
2022/08/31 01:26:18;;;;;;;;;;;;;;;16.63;83.94;96626.84;5046140;28;19982;-78
2022/08/31 01:28:44;;;;;;;;;;;;;;;16.66;85.14;96625.56;5046861;28;20326;-78
2022/08/31 01:31:22;;;;;;;;;;;;;;;16.68;83.20;96626.09;5046804;28;19950;-79
2022/08/31 01:33:48;;;;;;;;;;;;;;;16.74;80.37;96623.25;5046076;28;20066;-79
2022/08/31 01:36:15;;;;;;;;;;;;;;;16.80;86.38;96632.84;5053387;28;19948;-79
2022/08/31 01:38:41;;;;;;;;;;;;;;;16.92;86.34;96637.16;5045459;28;19962;-79
2022/08/31 01:41:07;;;;;;;;;;;;;;;16.98;84.68;96633.50;5041412;28;20339;-79
2022/08/31 01:43:33;;;;;;;;;;;;;;;17.05;86.74;96639.41;5047873;28;19957;-79
2022/08/31 01:46:04;;;;;;;;;;;;;;;17.09;85.59;96642.31;5047289;28;20409;-79
2022/08/31 01:48:30;;;;;;;;;;;;;;;17.12;85.41;96642.63;5066804;28;19970;-79
2022/08/31 01:50:56;;;;;;;;;;;;;;;17.15;84.34;96644.75;5045201;28;19962;-79
2022/08/31 01:53:22;;;;;;;;;;;;;;;17.19;76.80;96635.25;5046153;28;19990;-79
2022/08/31 01:55:48;;;;;;;;;;;;;;;17.19;82.22;96656.44;5047230;28;19953;-79
2022/08/31 01:58:14;;;;;;;;;;;;;;;17.19;80.44;96661.75;5045078;28;20065;-76
2022/08/31 02:00:41;;;;;;;;;;;;;;;17.20;85.37;96668.66;5040195;28;20040;-74
2022/08/31 02:03:06;;;;;;;;;;;;;;;17.20;83.87;96668.66;5048678;28;19976;-75
2022/08/31 02:05:34;;;;;;;;;;;;;;;17.21;84.07;96664.16;5047966;28;20402;-74
2022/08/31 02:08:00;;;;;;;;;;;;;;;17.21;84.42;96661.50;5045341;28;19970;-75
2022/08/31 02:10:26;;;;;;;;;;;;;;;17.21;83.32;96658.84;5043405;28;19956;-75
2022/08/31 02:12:52;;;;;;;;;;;;;;;17.17;81.49;96663.06;5046236;28;19955;-74
2022/08/31 02:15:18;;;;;;;;;;;;;;;17.13;85.05;96656.66;5044578;28;19960;-76
2022/08/31 02:17:44;;;;;;;;;;;;;;;17.12;86.24;96657.72;5047822;28;19955;-76
2022/08/31 02:20:12;;;;;;;;;;;;;;;17.11;83.88;96653.47;5045471;28;19957;-76
2022/08/31 02:22:38;;;;;;;;;;;;;;;17.07;86.85;96647.09;5046285;28;20413;-76
2022/08/31 02:25:04;;;;;;;;;;;;;;;17.05;85.93;96652.66;5050331;28;19957;-76
2022/08/31 02:27:30;;;;;;;;;;;;;;;17.04;87.23;96653.69;5045981;28;19970;-75
2022/08/31 02:29:56;;;;;;;;;;;;;;;17.05;84.72;96652.66;5043231;28;19956;-75
2022/08/31 02:32:22;;;;;;;;;;;;;;;17.02;88.06;96653.94;5046469;28;20045;-74
2022/08/31 02:34:48;;;;;;;;;;;;;;;17.02;86.72;96655.78;5050108;28;20397;-74
2022/08/31 02:37:15;;;;;;;;;;;;;;;17.04;87.77;96662.44;5041835;28;19945;-75
2022/08/31 02:39:41;;;;;;;;;;;;;;;17.06;88.16;96662.19;5046032;28;19968;-74
2022/08/31 02:42:07;;;;;;;;;;;;;;;17.05;86.89;96668.56;5046513;28;19994;-75
2022/08/31 02:44:33;;;;;;;;;;;;;;;17.08;88.90;96680.50;5048456;28;19957;-75
2022/08/31 02:46:58;;;;;;;;;;;;;;;17.13;87.72;96672.56;5047969;28;19964;-75
2022/08/31 02:49:24;;;;;;;;;;;;;;;17.16;87.20;96670.22;5041431;28;20048;-76
2022/08/31 02:51:50;;;;;;;;;;;;;;;17.19;87.28;96666.25;5044997;28;20013;-75
2022/08/31 02:54:16;;;;;;;;;;;;;;;17.20;87.21;96679.25;5049948;28;19968;-74
2022/08/31 02:56:42;;;;;;;;;;;;;;;17.15;86.95;96670.47;5046228;28;19962;-74
2022/08/31 02:59:08;;;;;;;;;;;;;;;17.11;88.61;96667.50;5039078;28;20033;-74
2022/08/31 03:01:35;;;;;;;;;;;;;;;17.06;87.56;96659.53;5047327;28;20004;-74
2022/08/31 03:04:02;;;;;;;;;;;;;;;17.02;88.06;96659.25;5045256;28;19953;-75
2022/08/31 03:06:28;;;;;;;;;;;;;;;17.00;88.06;96664.00;5048486;28;19954;-76
2022/08/31 03:08:54;;;;;;;;;;;;;;;17.00;88.37;96669.28;5045576;28;19962;-75
2022/08/31 03:11:20;;;;;;;;;;;;;;;17.03;88.26;96670.66;5045401;28;19964;-76
2022/08/31 03:13:46;;;;;;;;;;;;;;;17.04;88.39;96665.09;5047041;28;19970;-75
2022/08/31 03:16:14;;;;;;;;;;;;;;;17.07;88.32;96657.69;5041026;28;20044;-76
2022/08/31 03:18:40;;;;;;;;;;;;;;;17.07;89.01;96653.16;5044662;28;19978;-75
2022/08/31 03:21:06;;;;;;;;;;;;;;;17.07;88.77;96657.69;5044759;28;19960;-76
2022/08/31 03:23:32;;;;;;;;;;;;;;;17.02;89.40;96659.25;5043877;28;19968;-76
2022/08/31 03:25:58;;;;;;;;;;;;;;;16.98;89.41;96652.06;5048442;28;20064;-76
2022/08/31 03:28:24;;;;;;;;;;;;;;;16.97;89.56;96658.41;5040030;28;20499;-76
2022/08/31 03:30:50;;;;;;;;;;;;;;;16.96;90.74;96657.59;5044545;28;20027;-76
2022/08/31 03:33:16;;;;;;;;;;;;;;;16.96;91.22;96659.47;5050206;28;19966;-76
2022/08/31 03:35:43;;;;;;;;;;;;;;;16.95;90.10;96660.53;5046246;28;20404;-76
2022/08/31 03:38:11;;;;;;;;;;;;;;;16.93;91.17;96660.75;5039229;28;19961;-74
2022/08/31 03:40:38;;;;;;;;;;;;;;;16.95;90.65;96668.47;5044095;28;19963;-75
2022/08/31 03:43:06;;;;;;;;;;;;;;;16.98;89.92;96666.09;5043816;28;19949;-75
2022/08/31 03:45:33;;;;;;;;;;;;;;;17.02;89.67;96663.75;5047434;28;19953;-75
2022/08/31 03:47:59;;;;;;;;;;;;;;;17.04;90.20;96672.25;5042607;28;19973;-76
2022/08/31 03:50:25;;;;;;;;;;;;;;;17.04;90.01;96677.53;5038577;28;19959;-77
2022/08/31 03:52:52;;;;;;;;;;;;;;;17.03;90.77;96675.97;5043505;28;20007;-75
2022/08/31 03:55:19;;;;;;;;;;;;;;;17.01;90.59;96680.72;5048881;28;20438;-75
2022/08/31 03:57:45;;;;;;;;;;;;;;;17.02;91.04;96682.28;5041599;28;20447;-75
2022/08/31 04:00:11;;;;;;;;;;;;;;;17.03;90.97;96682.06;5040937;28;19958;-75
2022/08/31 04:02:38;;;;;;;;;;;;;;;17.05;90.70;96671.19;5043035;28;19967;-74
2022/08/31 04:05:04;;;;;;;;;;;;;;;17.07;90.97;96677.03;5044219;28;19950;-75
2022/08/31 04:07:30;;;;;;;;;;;;;;;17.08;91.72;96673.34;5047559;28;19971;-75
2022/08/31 04:09:56;;;;;;;;;;;;;;;17.09;91.69;96674.91;5048568;28;20038;-74
2022/08/31 04:12:22;;;;;;;;;;;;;;;17.08;90.58;96678.63;5042094;28;20442;-75
2022/08/31 04:14:48;;;;;;;;;;;;;;;17.05;90.71;96679.16;5044027;28;19955;-74
2022/08/31 04:17:14;;;;;;;;;;;;;;;17.04;91.23;96674.88;5046011;28;20414;-74
2022/08/31 04:19:40;;;;;;;;;;;;;;;17.01;91.29;96675.41;5040611;28;19960;-75
2022/08/31 04:22:06;;;;;;;;;;;;;;;17.01;90.43;96672.75;5041337;28;19963;-75
2022/08/31 04:24:32;;;;;;;;;;;;;;;17.00;90.08;96674.59;5043535;28;19958;-75
2022/08/31 04:26:58;;;;;;;;;;;;;;;16.99;89.70;96674.88;5044145;28;19981;-75
2022/08/31 04:29:24;;;;;;;;;;;;;;;16.95;89.50;96671.91;5044067;28;20347;-75
2022/08/31 04:31:50;;;;;;;;;;;;;;;16.93;89.76;96686.47;5041895;28;19957;-74
2022/08/31 04:34:18;;;;;;;;;;;;;;;16.90;90.32;96685.09;5037882;28;20263;-75
2022/08/31 04:36:44;;;;;;;;;;;;;;;16.90;89.50;96694.91;5047296;28;19958;-74
2022/08/31 04:39:10;;;;;;;;;;;;;;;16.90;89.30;96692.25;5045824;28;20361;-75
2022/08/31 04:41:37;;;;;;;;;;;;;;;16.89;89.95;96686.16;5040240;28;20366;-74
2022/08/31 04:44:03;;;;;;;;;;;;;;;16.89;90.45;96693.31;5041744;28;19961;-74
2022/08/31 04:46:29;;;;;;;;;;;;;;;16.90;90.43;96695.69;5049546;28;19995;-74
2022/08/31 04:48:56;;;;;;;;;;;;;;;16.89;92.49;96698.63;5040841;28;19972;-74
2022/08/31 04:51:23;;;;;;;;;;;;;;;16.85;91.11;96698.31;5043183;28;19956;-74
2022/08/31 04:53:49;;;;;;;;;;;;;;;16.87;91.07;96704.16;5039797;28;19953;-74
2022/08/31 04:56:17;;;;;;;;;;;;;;;16.87;91.43;96700.72;5049240;28;20347;-74
2022/08/31 04:58:45;;;;;;;;;;;;;;;16.89;90.32;96707.34;5045526;28;19963;-75
2022/08/31 05:01:12;;;;;;;;;;;;;;;16.89;90.19;96701.28;5043582;28;20425;-74
2022/08/31 05:03:39;;;;;;;;;;;;;;;16.88;92.10;96704.94;5047964;28;19953;-74
2022/08/31 05:06:05;;;;;;;;;;;;;;;16.82;89.28;96702.28;5045688;28;19972;-74
2022/08/31 05:08:31;;;;;;;;;;;;;;;16.82;91.05;96712.06;5048668;28;19970;-74
2022/08/31 05:10:57;;;;;;;;;;;;;;;16.81;90.56;96711.25;5049096;28;19948;-75
2022/08/31 05:13:23;;;;;;;;;;;;;;;16.82;90.24;96710.22;5047671;28;19997;-75
2022/08/31 05:15:49;;;;;;;;;;;;;;;16.83;90.71;96714.44;5045407;28;19974;-75
2022/08/31 05:18:15;;;;;;;;;;;;;;;16.84;90.60;96718.72;5053473;28;20002;-75
2022/08/31 05:20:41;;;;;;;;;;;;;;;16.84;91.23;96713.41;5047015;28;19955;-75
2022/08/31 05:23:07;;;;;;;;;;;;;;;16.87;91.17;96709.47;5043312;28;20004;-75
2022/08/31 05:25:33;;;;;;;;;;;;;;;16.86;90.88;96712.34;5043959;28;19982;-75
2022/08/31 05:27:59;;;;;;;;;;;;;;;16.88;90.89;96699.66;5051103;28;20354;-75
2022/08/31 05:30:25;;;;;;;;;;;;;;;16.88;90.68;96702.31;5048760;28;19964;-75
2022/08/31 05:32:51;;;;;;;;;;;;;;;16.88;91.39;96711.03;5043577;28;20040;-75
2022/08/31 05:35:16;;;;;;;;;;;;;;;16.87;92.50;96709.47;5049179;28;19954;-75
2022/08/31 05:37:42;;;;;;;;;;;;;;;16.87;91.29;96709.47;5048094;28;19959;-75
2022/08/31 05:40:09;;;;;;;;;;;;;;;16.84;92.47;96707.31;5041032;28;19955;-75
2022/08/31 05:42:35;;;;;;;;;;;;;;;16.83;93.12;96700.41;5050252;28;20421;-75
2022/08/31 05:45:01;;;;;;;;;;;;;;;16.82;93.33;96712.88;5051066;28;19962;-75
2022/08/31 05:47:27;;;;;;;;;;;;;;;16.79;92.90;96705.38;5043757;28;20066;-75
2022/08/31 05:49:53;;;;;;;;;;;;;;;16.74;92.30;96718.59;5048881;28;20416;-75
2022/08/31 05:52:19;;;;;;;;;;;;;;;16.69;93.25;96718.50;5042905;28;20028;-75
2022/08/31 05:54:45;;;;;;;;;;;;;;;16.66;93.39;96719.03;5044663;28;19959;-75
2022/08/31 05:57:11;;;;;;;;;;;;;;;16.66;93.95;96719.03;5052729;28;19974;-76
2022/08/31 05:59:38;;;;;;;;;;;;;;;16.67;94.65;96710.03;5045569;28;19956;-75
2022/08/31 06:02:04;;;;;;;;;;;;;;;16.66;94.63;96718.25;5052066;28;19968;-75
2022/08/31 06:04:30;;;;;;;;;;;;;;;16.63;94.76;96711.56;5048888;28;19984;-75
2022/08/31 06:06:57;;;;;;;;;;;;;;;16.61;94.67;96722.44;5043599;28;19965;-74
2022/08/31 06:09:22;;;;;;;;;;;;;;;16.60;96.10;96710.22;5044822;28;20334;-75
2022/08/31 06:11:50;;;;;;;;;;;;;;;16.59;94.85;96711.28;5042902;28;19982;-75
2022/08/31 06:14:17;;;;;;;;;;;;;;;16.61;95.62;96701.25;5045844;28;19962;-74
2022/08/31 06:16:43;;;;;;;;;;;;;;;16.62;94.96;96707.34;5040044;28;19945;-74
2022/08/31 06:19:09;;;;;;;;;;;;;;;16.63;94.17;96709.75;5048719;28;19954;-74
2022/08/31 06:21:39;;;;;;;;;;;;;;;16.61;95.04;96709.19;5051573;28;20056;-75
2022/08/31 06:24:05;;;;;;;;;;;;;;;16.61;95.00;96719.78;5039823;28;19954;-74
2022/08/31 06:26:33;;;;;;;;;;;;;;;16.61;94.34;96711.84;5040595;28;20429;-74
2022/08/31 06:29:00;;;;;;;;;;;;;;;16.61;94.98;96722.44;5046225;28;19984;-74
2022/08/31 06:31:33;;;;;;;;;;;;;;;16.61;95.26;96719.00;5028695;28;19949;-74
2022/08/31 06:34:00;;;;;;;;;;;;;;;16.60;94.87;96718.16;5043207;28;19953;-74
2022/08/31 06:36:27;;;;;;;;;;;;;;;16.58;93.77;96720.25;5046311;28;19981;-74
2022/08/31 06:38:54;;;;;;;;;;;;;;;16.55;95.34;96722.63;5044676;28;19972;-74
2022/08/31 06:41:22;;;;;;;;;;;;;;;16.51;94.68;96732.13;5046594;28;19959;-74
2022/08/31 06:43:48;;;;;;;;;;;;;;;16.48;94.35;96732.59;5032169;28;19957;-75
2022/08/31 06:46:16;;;;;;;;;;;;;;;16.46;94.94;96727.53;5040492;28;19950;-74
2022/08/31 06:48:42;;;;;;;;;;;;;;;16.45;96.28;96733.91;5052451;28;19973;-75
2022/08/31 06:51:09;;;;;;;;;;;;;;;16.47;95.87;96737.09;5046414;28;19962;-75
2022/08/31 06:53:37;;;;;;;;;;;;;;;16.48;95.04;96743.97;5040121;28;19970;-76
2022/08/31 06:56:07;;;;;;;;;;;;;;;16.48;95.14;96745.84;5043453;28;19964;-75
2022/08/31 06:58:33;;;;;;;;;;;;;;;16.47;95.44;96755.63;5045508;28;19951;-75
2022/08/31 07:01:06;;;;;;;;;;;;;;;16.46;96.49;96754.00;5049041;28;20342;-75
2022/08/31 07:03:37;;;;;;;;;;;;;;;16.44;94.92;96769.34;5036634;28;19960;-75
2022/08/31 07:06:07;;;;;;;;;;;;;;;16.42;95.03;96764.31;5047947;28;19952;-75
2022/08/31 07:08:34;;;;;;;;;;;;;;;16.42;94.63;96772.25;5039254;28;19981;-75
2022/08/31 07:11:00;;;;;;;;;;;;;;;16.42;94.37;96774.09;5049639;28;19956;-75
2022/08/31 07:13:26;;;;;;;;;;;;;;;16.41;95.03;96769.84;5044890;28;19964;-75
2022/08/31 07:16:01;;;;;;;;;;;;;;;16.42;95.32;96772.25;5042190;28;19958;-75
2022/08/31 07:18:27;;;;;;;;;;;;;;;16.42;94.98;96774.09;5041617;28;19959;-75
2022/08/31 07:20:53;;;;;;;;;;;;;;;16.41;95.65;96770.66;5048773;28;20017;-74
2022/08/31 07:23:18;;;;;;;;;;;;;;;16.42;95.61;96768.78;5044351;28;19956;-75
2022/08/31 07:25:45;;;;;;;;;;;;;;;16.44;95.16;96772.81;5043239;28;20455;-75
2022/08/31 07:28:12;;;;;;;;;;;;;;;16.47;95.90;96781.31;5042843;28;19976;-75
2022/08/31 07:30:41;;;;;;;;;;;;;;;16.49;96.51;96773.94;5045545;28;19972;-75
2022/08/31 07:33:08;;;;;;;;;;;;;;;16.52;96.52;96770.78;5045591;28;19950;-75
2022/08/31 07:35:33;;;;;;;;;;;;;;;16.65;93.50;96770.38;5045123;28;19966;-74
2022/08/31 07:43:29;;;;;;;;;;;;;;;17.51;89.93;96774.91;5033771;28;20335;-75
2022/08/31 07:45:54;;;;;;;;;;;;;;;17.71;89.04;96779.56;5031473;28;19976;-75
2022/08/31 07:48:20;;;;;;;;;;;;;;;17.87;87.74;96775.19;5029593;28;20050;-75
2022/08/31 07:50:46;;;;;;;;;;;;;;;18.01;87.07;96772.88;5029906;28;20034;-75
2022/08/31 07:53:13;;;;;;;;;;;;;;;18.10;86.07;96762.56;5044602;28;19953;-75
2022/08/31 07:55:44;;;;;;;;;;;;;;;18.21;85.35;96772.19;5027235;28;19974;-75
2022/08/31 07:58:12;;;;;;;;;;;;;;;18.29;85.35;96770.88;5042172;28;19960;-75
2022/08/31 08:00:38;;;;;;;;;;;;;;;18.35;84.85;96781.28;5034376;28;19957;-76
2022/08/31 08:03:11;;;;;;;;;;;;;;;18.42;84.55;96779.19;5030048;28;19954;-75
2022/08/31 08:05:40;;;;;;;;;;;;;;;18.49;84.12;96778.13;5030098;28;20524;-75
2022/08/31 08:08:07;;;;;;;;;;;;;;;18.53;83.76;96784.53;5028531;28;19973;-75
2022/08/31 08:10:37;;;;;;;;;;;;;;;18.55;83.45;96783.22;5027547;28;19967;-75
2022/08/31 08:13:03;;;;;;;;;;;;;;;18.57;83.25;96781.09;5027362;28;19959;-74
2022/08/31 08:15:30;;;;;;;;;;;;;;;18.57;83.13;96783.75;5031642;28;19960;-75
2022/08/31 08:17:56;;;;;;;;;;;;;;;18.53;83.14;96792.50;5031192;28;19965;-75
2022/08/31 08:20:22;;;;;;;;;;;;;;;18.53;83.28;96795.94;5034435;28;20343;-75
2022/08/31 08:22:48;;;;;;;;;;;;;;;18.53;83.41;96787.19;5036313;28;20006;-75
2022/08/31 08:25:14;;;;;;;;;;;;;;;18.50;84.08;96790.34;5030864;28;19957;-77
2022/08/31 08:27:40;;;;;;;;;;;;;;;18.36;84.41;96787.38;5033656;28;20419;-76
2022/08/31 08:30:07;;;;;;;;;;;;;;;18.21;85.50;96791.56;5041557;28;19957;-77
2022/08/31 08:32:34;;;;;;;;;;;;;;;18.09;86.25;96792.81;5028619;28;19982;-77
2022/08/31 08:35:00;;;;;;;;;;;;;;;17.99;86.29;96783.72;5032066;28;19949;-77
2022/08/31 08:37:26;;;;;;;;;;;;;;;17.92;87.44;96793.78;5060798;28;19954;-77
2022/08/31 08:39:52;;;;;;;;;;;;;;;17.89;87.42;96802.28;5044310;28;19964;-77
2022/08/31 08:42:19;;;;;;;;;;;;;;;17.85;88.62;96790.56;5039171;28;19959;-77
2022/08/31 08:44:45;;;;;;;;;;;;;;;17.82;89.52;96799.00;5042543;28;19965;-77
2022/08/31 08:47:19;;;;;;;;;;;;;;;17.80;90.40;96801.91;5048452;28;19957;-77
2022/08/31 08:49:48;;;;;;;;;;;;;;;17.80;89.81;96803.75;5041970;28;19972;-77
2022/08/31 08:52:50;;;;;;;;;;;;;;;17.80;90.76;96806.41;5040453;28;19945;-76
2022/08/31 08:55:17;;;;;;;;;;;;;;;17.79;89.83;96816.22;5021513;28;19983;-77
2022/08/31 08:57:45;;;;;;;;;;;;;;;17.80;90.31;96812.50;5034989;28;19957;-77
2022/08/31 09:00:19;;;;;;;;;;;;;;;17.82;92.06;96815.75;5046620;28;19945;-77
2022/08/31 09:02:54;;;;;;;;;;;;;;;17.84;90.61;96826.88;5044149;28;19951;-77
2022/08/31 09:05:29;;;;;;;;;;;;;;;17.84;90.35;96818.94;5042486;28;19952;-77
2022/08/31 09:08:15;;;;;;;;;;;;;;;17.85;90.71;96825.84;5032911;28;19953;-77
2022/08/31 09:10:49;;;;;;;;;;;;;;;17.92;91.11;96812.38;5045222;28;19958;-77
2022/08/31 09:13:52;;;;;;;;;;;;;;;17.98;90.82;96819.31;5032343;28;19957;-77
2022/08/31 09:16:38;;;;;;;;;;;;;;;18.04;91.66;96812.97;4984363;28;20427;-77
2022/08/31 09:19:07;;;;;;;;;;;;;;;18.09;91.61;96817.50;5028574;28;19955;-77
2022/08/31 09:21:38;;;;;;;;;;;;;;;18.13;91.97;96817.81;5033325;28;19962;-77
2022/08/31 09:24:09;;;;;;;;;;;;;;;18.19;92.06;96828.19;5027519;28;19951;-77
2022/08/31 09:26:49;;;;;;;;;;;;;;;18.25;92.56;96824.50;5029608;28;19983;-77
2022/08/31 09:29:29;;;;;;;;;;;;;;;18.31;90.40;96821.88;5043857;28;19977;-77
2022/08/31 09:32:00;;;;;;;;;;;;;;;18.31;89.12;96817.38;5043752;28;19961;-77
2022/08/31 09:34:31;;;;;;;;;;;;;;;18.33;90.62;96817.09;5042712;28;19951;-77
2022/08/31 09:37:15;;;;;;;;;;;;;;;18.36;91.09;96819.25;5035312;28;19962;-77
2022/08/31 09:39:46;;;;;;;;;;;;;;;18.37;91.01;96818.19;5040111;28;19959;-77
2022/08/31 09:42:17;;;;;;;;;;;;;;;18.39;92.55;96824.03;5038386;28;20351;-78
2022/08/31 09:44:45;;;;;;;;;;;;;;;18.39;90.56;96824.81;5052629;28;19956;-77
2022/08/31 09:47:39;;;;;;;;;;;;;;;18.41;89.70;96828.00;5044642;28;19953;-77
2022/08/31 09:50:08;;;;;;;;;;;;;;;18.43;90.18;96822.47;5050920;28;19971;-78
2022/08/31 09:55:23;;;;;;;;;;;;;;;18.39;90.03;96824.81;5046198;28;19959;-78
2022/08/31 09:57:52;;;;;;;;;;;;;;;18.32;89.05;96818.97;5047520;28;19952;-78
2022/08/31 10:00:30;;;;;;;;;;;;;;;18.25;90.42;96826.38;5047982;28;19951;-78
2022/08/31 10:03:02;;;;;;;;;;;;;;;18.22;91.79;96816.25;5045749;28;19949;-78
2022/08/31 10:05:39;;;;;;;;;;;;;;;18.22;92.88;96824.22;5038829;28;20424;-77
2022/08/31 10:08:27;;;;;;;;;;;;;;;18.20;92.85;96824.47;5043808;28;19959;-76
2022/08/31 10:10:57;;;;;;;;;;;;;;;18.19;93.79;96830.84;5046853;28;19953;-75
2022/08/31 10:13:33;;;;;;;;;;;;;;;18.16;92.80;96825.22;5048838;28;19961;-74
2022/08/31 10:16:01;;;;;;;;;;;;;;;18.12;92.20;96834.75;5044633;28;20326;-74
2022/08/31 10:18:42;;;;;;;;;;;;;;;18.09;93.79;96836.09;5046506;28;19956;-74
2022/08/31 10:21:11;;;;;;;;;;;;;;;18.02;93.43;96828.34;5048364;28;19957;-74
2022/08/31 10:23:52;;;;;;;;;;;;;;;17.95;92.55;96825.09;5046987;28;20423;-74
2022/08/31 10:26:30;;;;;;;;;;;;;;;17.89;93.84;96836.75;5050369;28;19986;-74
2022/08/31 10:28:58;;;;;;;;;;;;;;;17.82;94.45;96833.47;5039714;28;19981;-74
2022/08/31 10:31:28;;;;;;;;;;;;;;;17.76;93.36;96835.28;5046879;28;19957;-74
2022/08/31 10:36:44;;;;;;;;;;;;;;;17.67;95.06;96830.72;5045440;28;19968;-76
2022/08/31 10:39:17;;;;;;;;;;;;;;;17.61;94.89;96820.06;5048021;28;19954;-75
2022/08/31 10:41:47;;;;;;;;;;;;;;;17.56;97.15;96821.91;5043726;28;20029;-76
2022/08/31 10:44:25;;;;;;;;;;;;;;;17.50;94.22;96822.91;5047651;28;19948;-75
2022/08/31 10:46:57;;;;;;;;;;;;;;;17.43;95.63;96831.06;5043285;28;19958;-76
2022/08/31 10:49:25;;;;;;;;;;;;;;;17.36;92.53;96818.00;5046654;28;19962;-77
2022/08/31 10:51:55;;;;;;;;;;;;;;;17.30;96.67;96823.50;5046027;28;20385;-77
2022/08/31 10:54:31;;;;;;;;;;;;;;;17.24;94.25;96826.13;5044388;28;19959;-76
2022/08/31 10:57:18;;;;;;;;;;;;;;;17.18;93.14;96824.47;5045920;28;19961;-77
2022/08/31 11:00:00;;;;;;;;;;;;;;;17.14;97.70;96820.72;5044440;28;19959;-77
2022/08/31 11:02:31;;;;;;;;;;;;;;;17.20;100.00;96824.22;5043285;28;19959;-77
2022/08/31 11:04:57;;;;;;;;;;;;;;;17.24;99.88;96827.97;5043894;28;19952;-77
2022/08/31 11:07:35;;;;;;;;;;;;;;;17.28;99.33;96820.31;5048192;28;20060;-77
2022/08/31 11:10:35;;;;;;;;;;;;;;;17.31;98.61;96817.97;5045632;28;19967;-77
2022/08/31 11:13:04;;;;;;;;;;;;;;;17.38;98.73;96825.72;5028549;28;19945;-77
2022/08/31 11:15:52;;;;;;;;;;;;;;;17.43;98.79;96823.91;5039237;28;20353;-77
2022/08/31 11:18:38;;;;;;;;;;;;;;;17.51;98.49;96816.53;5045999;28;20430;-77
2022/08/31 11:21:04;;;;;;;;;;;;;;;17.59;99.35;96822.16;5047553;28;19959;-77
2022/08/31 11:23:38;;;;;;;;;;;;;;;17.67;97.99;96820.91;5044808;28;19965;-77
2022/08/31 11:26:26;;;;;;;;;;;;;;;17.75;98.12;96822.31;5047652;28;19979;-77
2022/08/31 11:28:55;;;;;;;;;;;;;;;17.85;98.66;96814.44;5043558;28;20471;-77
2022/08/31 11:31:23;;;;;;;;;;;;;;;17.96;97.61;96812.66;5047487;28;19952;-77
2022/08/31 11:33:55;;;;;;;;;;;;;;;18.09;97.59;96811.41;5042231;28;19957;-78
2022/08/31 11:36:41;;;;;;;;;;;;;;;18.25;100.00;96813.09;5044864;28;19958;-77
2022/08/31 11:39:29;;;;;;;;;;;;;;;18.39;96.48;96811.53;5047453;28;19961;-78
2022/08/31 11:41:57;;;;;;;;;;;;;;;18.48;95.09;96806.56;5045212;28;19961;-77
2022/08/31 11:44:28;;;;;;;;;;;;;;;18.60;98.23;96804.47;5053851;28;19957;-77
2022/08/31 11:47:01;;;;;;;;;;;;;;;18.79;96.58;96798.72;5037352;28;20403;-77
2022/08/31 11:49:35;;;;;;;;;;;;;;;19.13;99.74;96790.28;5038464;28;19980;-78
2022/08/31 11:52:09;;;;;;;;;;;;;;;19.50;95.90;96795.34;5042143;28;19973;-78
2022/08/31 11:54:41;;;;;;;;;;;;;;;19.72;90.74;96792.47;5043456;28;19961;-78
2022/08/31 11:57:23;;;;;;;;;;;;;;;19.80;89.65;96799.09;5045532;28;19981;-78
2022/08/31 11:59:49;;;;;;;;;;;;;;;19.94;89.19;96786.81;5050967;28;20338;-78
2022/08/31 12:02:18;;;;;;;;;;;;;;;20.16;90.74;96791.84;5044467;28;19956;-78
2022/08/31 12:04:47;;;;;;;;;;;;;;;20.28;89.21;96788.84;5044415;28;19978;-78
2022/08/31 12:07:15;;;;;;;;;;;;;;;20.34;87.28;96789.66;5044842;28;19956;-79
2022/08/31 12:09:51;;;;;;;;;;;;;;;20.33;85.32;96786.19;5038671;28;19963;-79
2022/08/31 12:12:20;;;;;;;;;;;;;;;20.22;84.71;96787.28;5042659;28;19975;-79
2022/08/31 12:15:06;;;;;;;;;;;;;;;20.11;85.47;96785.72;5042483;28;19963;-79
2022/08/31 12:17:51;;;;;;;;;;;;;;;19.97;86.31;96786.28;5003955;28;20425;-79
2022/08/31 12:20:26;;;;;;;;;;;;;;;19.90;87.08;96784.97;5043814;28;19966;-79
2022/08/31 12:26:06;;;;;;;;;;;;;;;19.77;87.34;96783.66;5027707;28;19986;-79
2022/08/31 12:28:41;;;;;;;;;;;;;;;19.70;87.87;96783.94;5018672;28;19962;-79
2022/08/31 12:31:09;;;;;;;;;;;;;;;19.64;87.01;96783.13;5047817;28;19953;-80
2022/08/31 12:33:37;;;;;;;;;;;;;;;19.62;86.94;96779.91;5043133;28;19958;-79
2022/08/31 12:36:14;;;;;;;;;;;;;;;19.62;87.67;96792.44;5038658;28;20443;-79
2022/08/31 12:38:40;;;;;;;;;;;;;;;19.65;85.41;96791.88;5030308;28;19964;-79
2022/08/31 12:41:08;;;;;;;;;;;;;;;19.70;86.64;96791.94;5025072;28;20343;-79
2022/08/31 12:43:42;;;;;;;;;;;;;;;19.77;87.26;96783.66;5039937;28;20310;-80
2022/08/31 12:46:26;;;;;;;;;;;;;;;19.93;86.88;96777.25;5044695;28;19954;-79
2022/08/31 12:49:15;;;;;;;;;;;;;;;20.05;86.46;96780.44;5042129;28;19995;-79
2022/08/31 12:51:44;;;;;;;;;;;;;;;20.07;84.95;96780.94;5038723;28;19983;-79
2022/08/31 12:54:10;;;;;;;;;;;;;;;20.07;83.20;96769.47;5046985;28;19955;-79
2022/08/31 12:56:41;;;;;;;;;;;;;;;20.01;83.94;96776.72;5043877;28;19964;-79
2022/08/31 12:59:10;;;;;;;;;;;;;;;19.94;83.84;96778.03;5042775;28;19955;-79
2022/08/31 13:01:42;;;;;;;;;;;;;;;19.88;83.54;96774.59;5044074;28;20325;-79
2022/08/31 13:04:09;;;;;;;;;;;;;;;19.84;83.77;96781.50;5038221;28;19960;-79
2022/08/31 13:06:37;;;;;;;;;;;;;;;19.79;84.43;96778.88;5041363;28;19960;-79
2022/08/31 13:09:04;;;;;;;;;;;;;;;19.79;84.36;96774.34;5049057;28;19978;-79
2022/08/31 13:11:42;;;;;;;;;;;;;;;19.82;83.85;96768.50;5043365;28;19966;-79
2022/08/31 13:14:10;;;;;;;;;;;;;;;19.91;84.00;96768.75;5040389;28;19956;-79
2022/08/31 13:16:44;;;;;;;;;;;;;;;20.00;84.53;96768.97;5044341;28;19960;-79